EKSBEDHK

Guest
Details From EKSB - Sonderborg
To EDHK - Kiel Holtenau
Flight Number -
Tags Routegen
Created
Modified
Stats Distance 37 nm / 69 km
Max Altitude 0 ft / 0 m
Waypoints 2
Social Downloads 0
Likes 0
Share VATSIM

Download

Looking for another format? Having issues loading an existing format? Contact us
Advertisement - Login to hide

Notes

None

Route

EKSB EDHK

ID Type Via Altitude (ft/m) Position (lat/lon) Dist (leg/tot) Name
O EKSB APT - 0 / 0 54.96895 / 9.78489 - / 0 nm
O EDHK APT - 0 / 0 54.37871 / 10.13557 37 / 37 nm Kiel Holtenau

Altitude Profile

Advertisement - Login to hide

EKSB

Details ICAO EKSB (SGD)
Name Sonderborg
Region Denmark / Faroe Islands
Timezone Europe/Copenhagen (UTC+2.0)
Stats Elevation 23 ft / 7 m (AMSL)
Location 54.962800° 9.794010°
Runways 1
Magnetic Variation 2.865° E

METAR

EKSB 231020Z 29022G34KT 9999 -SHRA FEW014 BKN020 13/11 Q1007

Decode

TAF

Not found

Departure Runways

ID Width Length Bearing (true/mag) Surface Threshold Overrun Markings Lighting
14 98 ft / 30 m 5,883 ft / 1,793 m 139.41° / 136.55° ASPHALT 0 ft / 0 m 0 ft / 0 m APP EDGE THRESHOLD SSALF REIL-UNI
32 98 ft / 30 m 5,883 ft / 1,793 m 319.43° / 316.57° ASPHALT 0 ft / 0 m 0 ft / 0 m PREC-APP EDGE THRESHOLD ALSF-I REIL-UNI

EDHK

Details ICAO EDHK (KEL)
Name Kiel Holtenau
Region Germany - Civil
Timezone Europe/Berlin (UTC+2.0)
Stats Elevation 101 ft / 31 m (AMSL)
Location 54.380400° 10.144000°
Runways 2
Magnetic Variation 2.971° E

METAR

EDHK 230950Z 29020G31KT 6000 2500E -DZ BR BKN009 OVC016 12/10 Q1009

Decode

TAF

Not found

Destination Runways

ID Width Length Bearing (true/mag) Surface Threshold Overrun Markings Lighting
08 98 ft / 30 m 4,532 ft / 1,381 m 82.45° / 79.47° CONCRETE 787 ft / 240 m 0 ft / 0 m VISUAL CENTERLINE EDGE THRESHOLD
08L 131 ft / 40 m 1,409 ft / 430 m 80.81° / 77.84° GRASS 0 ft / 0 m 0 ft / 0 m NONE CENTERLINE
26 98 ft / 30 m 4,532 ft / 1,381 m 262.46° / 259.49° CONCRETE 351 ft / 107 m 0 ft / 0 m VISUAL CENTERLINE EDGE THRESHOLD
26R 131 ft / 40 m 1,409 ft / 430 m 260.82° / 257.85° GRASS 0 ft / 0 m 0 ft / 0 m NONE CENTERLINE

Approach Navaids

Runway Type Ident Frequency Range Bearing (true/mag) Slope Elevation
08 LOC-ILS IKHE 109.50 MHz 18 nm / 33 km 82.45° / 79.48 ° - 101 ft / 31 m (AMSL)
08 GS IKHE 109.50 MHz 10 nm / 19 km 82.45° / 79.48 ° 3.00° 101 ft / 31 m (AMSL)
08 OM OM - - 81.98° / 79.01 ° - 101 ft / 31 m (AMSL)
08 MM MM - - 81.98° / 79.01 ° - 101 ft / 31 m (AMSL)
26 LOC-ILS IKHW 109.50 MHz 18 nm / 33 km 262.45° / 259.48 ° - 101 ft / 31 m (AMSL)
26 OM OM - - 260.65° / 257.68 ° - 101 ft / 31 m (AMSL)
26 GS IKHW 109.50 MHz 10 nm / 19 km 262.45° / 259.48 ° 3.00° 101 ft / 31 m (AMSL)
26 MM MM - - 260.65° / 257.68 ° - 101 ft / 31 m (AMSL)